In Rescue
 
Open Full Screen Window  High Contrast Mode
Wind Gusting 17 knots
13
April 20, 2024 10:36 AM EDT
Weather Information
Wind Direction
  280 °
Wind Speed
  13 kt (15 mph)
Wind Gust
  17 kt (20 mph)
Altimeter
30.08 in
Visibility
10 SM
Temperature
05° C
41° F
Dewpoint
-04° C
25° F
Humidity
52%
Sky Condition
Overcast @ 7,000 ft
Broken @ 4,400 ft
Broken @ 3,300 ft
VFR

METAR KIKW 201436Z AUTO 28013G17KT 10SM BKN033 BKN044 OVC070 05/M04 A3008 RMK AO2 T00511042

FAA Disclaimer: The data displayed is for advisory purposes only and is not to be used for flight planning or operations.